sensor_id;sensor_type;location;lat;lon;timestamp;P1;durP1;ratioP1;P2;durP2;ratioP2
51020;SDS011;38907;45.562;8.856;2023-12-04T00:04:17;27.83;;;18.95;;
51020;SDS011;38907;45.562;8.856;2023-12-04T00:09:20;27.75;;;18.35;;
51020;SDS011;38907;45.562;8.856;2023-12-04T00:14:24;23.05;;;18.35;;
51020;SDS011;38907;45.562;8.856;2023-12-04T00:19:26;23.17;;;17.77;;
51020;SDS011;38907;45.562;8.856;2023-12-04T00:24:29;25.92;;;18.00;;
51020;SDS011;38907;45.562;8.856;2023-12-04T00:29:31;20.65;;;16.73;;
51020;SDS011;38907;45.562;8.856;2023-12-04T00:34:33;25.38;;;16.98;;
51020;SDS011;38907;45.562;8.856;2023-12-04T00:39:36;24.73;;;17.67;;
51020;SDS011;38907;45.562;8.856;2023-12-04T00:49:40;23.48;;;15.70;;
51020;SDS011;38907;45.562;8.856;2023-12-04T00:54:43;22.08;;;15.98;;
51020;SDS011;38907;45.562;8.856;2023-12-04T00:59:45;22.52;;;15.90;;
51020;SDS011;38907;45.562;8.856;2023-12-04T01:04:47;19.55;;;13.95;;
51020;SDS011;38907;45.562;8.856;2023-12-04T01:09:50;19.83;;;14.52;;
51020;SDS011;38907;45.562;8.856;2023-12-04T01:14:52;19.20;;;14.30;;
51020;SDS011;38907;45.562;8.856;2023-12-04T01:19:53;18.52;;;14.48;;
51020;SDS011;38907;45.562;8.856;2023-12-04T01:24:57;18.63;;;14.65;;
51020;SDS011;38907;45.562;8.856;2023-12-04T01:29:58;20.52;;;13.88;;
51020;SDS011;38907;45.562;8.856;2023-12-04T01:35:01;17.48;;;13.80;;
51020;SDS011;38907;45.562;8.856;2023-12-04T01:40:04;18.50;;;13.85;;
51020;SDS011;38907;45.562;8.856;2023-12-04T01:45:08;17.13;;;12.85;;
51020;SDS011;38907;45.562;8.856;2023-12-04T01:50:10;16.92;;;12.70;;
51020;SDS011;38907;45.562;8.856;2023-12-04T01:55:14;14.88;;;12.00;;
51020;SDS011;38907;45.562;8.856;2023-12-04T02:00:17;14.77;;;12.07;;
51020;SDS011;38907;45.562;8.856;2023-12-04T02:05:21;16.35;;;12.07;;
51020;SDS011;38907;45.562;8.856;2023-12-04T02:10:25;12.63;;;11.05;;
51020;SDS011;38907;45.562;8.856;2023-12-04T02:15:27;13.18;;;10.70;;
51020;SDS011;38907;45.562;8.856;2023-12-04T02:20:31;15.93;;;11.38;;
51020;SDS011;38907;45.562;8.856;2023-12-04T02:25:35;14.68;;;11.23;;
51020;SDS011;38907;45.562;8.856;2023-12-04T02:30:37;18.10;;;11.88;;
51020;SDS011;38907;45.562;8.856;2023-12-04T02:35:42;15.43;;;11.77;;
51020;SDS011;38907;45.562;8.856;2023-12-04T02:40:46;13.90;;;11.60;;
51020;SDS011;38907;45.562;8.856;2023-12-04T02:45:48;15.07;;;11.55;;
51020;SDS011;38907;45.562;8.856;2023-12-04T02:50:49;17.95;;;12.27;;
51020;SDS011;38907;45.562;8.856;2023-12-04T02:55:53;14.20;;;10.75;;
51020;SDS011;38907;45.562;8.856;2023-12-04T03:00:54;17.60;;;10.38;;
51020;SDS011;38907;45.562;8.856;2023-12-04T03:05:57;16.43;;;11.77;;
51020;SDS011;38907;45.562;8.856;2023-12-04T03:11:02;16.90;;;12.20;;
51020;SDS011;38907;45.562;8.856;2023-12-04T03:16:04;17.20;;;11.70;;
51020;SDS011;38907;45.562;8.856;2023-12-04T03:21:07;22.88;;;14.30;;
51020;SDS011;38907;45.562;8.856;2023-12-04T03:26:10;23.98;;;14.80;;
51020;SDS011;38907;45.562;8.856;2023-12-04T03:31:12;28.02;;;15.55;;
51020;SDS011;38907;45.562;8.856;2023-12-04T03:36:13;24.08;;;15.48;;
51020;SDS011;38907;45.562;8.856;2023-12-04T03:41:17;22.80;;;14.82;;
51020;SDS011;38907;45.562;8.856;2023-12-04T03:46:18;19.80;;;13.75;;
51020;SDS011;38907;45.562;8.856;2023-12-04T03:51:20;15.30;;;11.80;;
51020;SDS011;38907;45.562;8.856;2023-12-04T03:56:23;14.05;;;10.43;;
51020;SDS011;38907;45.562;8.856;2023-12-04T04:01:25;14.43;;;10.57;;
51020;SDS011;38907;45.562;8.856;2023-12-04T04:06:27;14.27;;;9.88;;
51020;SDS011;38907;45.562;8.856;2023-12-04T04:11:30;11.43;;;9.52;;
51020;SDS011;38907;45.562;8.856;2023-12-04T04:16:32;13.23;;;10.50;;
51020;SDS011;38907;45.562;8.856;2023-12-04T04:21:34;13.55;;;10.27;;
51020;SDS011;38907;45.562;8.856;2023-12-04T04:26:41;14.88;;;9.45;;
51020;SDS011;38907;45.562;8.856;2023-12-04T04:31:43;10.77;;;9.55;;
51020;SDS011;38907;45.562;8.856;2023-12-04T04:36:44;11.80;;;9.38;;
51020;SDS011;38907;45.562;8.856;2023-12-04T04:41:48;13.57;;;10.32;;
51020;SDS011;38907;45.562;8.856;2023-12-04T04:46:49;10.90;;;9.68;;
51020;SDS011;38907;45.562;8.856;2023-12-04T04:51:51;12.38;;;9.20;;
51020;SDS011;38907;45.562;8.856;2023-12-04T04:56:54;11.43;;;9.65;;
51020;SDS011;38907;45.562;8.856;2023-12-04T05:01:56;10.25;;;8.85;;
51020;SDS011;38907;45.562;8.856;2023-12-04T05:06:58;13.88;;;9.63;;
51020;SDS011;38907;45.562;8.856;2023-12-04T05:12:01;10.65;;;9.18;;
51020;SDS011;38907;45.562;8.856;2023-12-04T05:17:04;12.00;;;9.55;;
51020;SDS011;38907;45.562;8.856;2023-12-04T05:22:05;11.07;;;9.45;;
51020;SDS011;38907;45.562;8.856;2023-12-04T05:27:09;15.05;;;11.00;;
51020;SDS011;38907;45.562;8.856;2023-12-04T05:32:10;12.55;;;10.20;;
51020;SDS011;38907;45.562;8.856;2023-12-04T05:37:12;15.23;;;10.00;;
51020;SDS011;38907;45.562;8.856;2023-12-04T05:42:16;10.88;;;9.27;;
51020;SDS011;38907;45.562;8.856;2023-12-04T05:47:18;15.70;;;9.88;;
51020;SDS011;38907;45.562;8.856;2023-12-04T05:52:19;17.48;;;11.13;;
51020;SDS011;38907;45.562;8.856;2023-12-04T05:57:23;17.80;;;13.27;;
51020;SDS011;38907;45.562;8.856;2023-12-04T06:02:24;15.00;;;12.25;;
51020;SDS011;38907;45.562;8.856;2023-12-04T06:07:28;17.55;;;12.40;;
51020;SDS011;38907;45.562;8.856;2023-12-04T06:12:31;13.50;;;10.43;;
51020;SDS011;38907;45.562;8.856;2023-12-04T06:17:33;13.60;;;11.35;;
51020;SDS011;38907;45.562;8.856;2023-12-04T06:22:35;13.23;;;11.18;;
51020;SDS011;38907;45.562;8.856;2023-12-04T06:27:39;14.02;;;10.88;;
51020;SDS011;38907;45.562;8.856;2023-12-04T06:32:41;14.32;;;11.23;;
51020;SDS011;38907;45.562;8.856;2023-12-04T06:37:43;15.65;;;11.35;;
51020;SDS011;38907;45.562;8.856;2023-12-04T06:42:48;11.97;;;10.00;;
51020;SDS011;38907;45.562;8.856;2023-12-04T06:52:52;18.13;;;10.93;;
51020;SDS011;38907;45.562;8.856;2023-12-04T06:57:55;17.60;;;11.93;;
51020;SDS011;38907;45.562;8.856;2023-12-04T07:02:57;17.45;;;11.20;;
51020;SDS011;38907;45.562;8.856;2023-12-04T07:07:59;15.40;;;11.38;;
51020;SDS011;38907;45.562;8.856;2023-12-04T07:13:02;13.98;;;11.35;;
51020;SDS011;38907;45.562;8.856;2023-12-04T07:18:04;16.83;;;11.48;;
51020;SDS011;38907;45.562;8.856;2023-12-04T07:23:05;14.77;;;11.65;;
51020;SDS011;38907;45.562;8.856;2023-12-04T07:28:09;13.55;;;10.38;;
51020;SDS011;38907;45.562;8.856;2023-12-04T07:33:10;17.27;;;11.20;;
51020;SDS011;38907;45.562;8.856;2023-12-04T07:38:12;14.63;;;10.45;;
51020;SDS011;38907;45.562;8.856;2023-12-04T07:43:15;12.27;;;10.00;;
51020;SDS011;38907;45.562;8.856;2023-12-04T07:48:18;15.18;;;10.95;;
51020;SDS011;38907;45.562;8.856;2023-12-04T07:53:19;18.75;;;10.90;;
51020;SDS011;38907;45.562;8.856;2023-12-04T07:58:24;16.33;;;11.80;;
51020;SDS011;38907;45.562;8.856;2023-12-04T08:03:25;17.17;;;12.90;;
51020;SDS011;38907;45.562;8.856;2023-12-04T08:08:28;16.55;;;12.55;;
51020;SDS011;38907;45.562;8.856;2023-12-04T08:13:32;17.60;;;12.73;;
51020;SDS011;38907;45.562;8.856;2023-12-04T08:18:35;16.60;;;13.60;;
51020;SDS011;38907;45.562;8.856;2023-12-04T08:23:36;19.20;;;14.60;;
51020;SDS011;38907;45.562;8.856;2023-12-04T08:28:40;19.98;;;15.10;;
51020;SDS011;38907;45.562;8.856;2023-12-04T08:33:42;21.85;;;15.95;;
51020;SDS011;38907;45.562;8.856;2023-12-04T08:38:44;21.65;;;16.35;;
51020;SDS011;38907;45.562;8.856;2023-12-04T08:43:47;20.55;;;15.68;;
51020;SDS011;38907;45.562;8.856;2023-12-04T08:48:49;21.25;;;15.95;;
51020;SDS011;38907;45.562;8.856;2023-12-04T08:53:50;20.05;;;16.60;;
51020;SDS011;38907;45.562;8.856;2023-12-04T08:58:54;24.42;;;16.60;;
51020;SDS011;38907;45.562;8.856;2023-12-04T09:03:55;23.20;;;16.00;;
51020;SDS011;38907;45.562;8.856;2023-12-04T09:08:57;25.33;;;17.08;;
51020;SDS011;38907;45.562;8.856;2023-12-04T09:14:00;25.95;;;17.92;;
51020;SDS011;38907;45.562;8.856;2023-12-04T09:19:02;21.40;;;17.33;;
51020;SDS011;38907;45.562;8.856;2023-12-04T09:24:06;23.98;;;18.15;;
51020;SDS011;38907;45.562;8.856;2023-12-04T09:29:10;21.25;;;18.73;;
51020;SDS011;38907;45.562;8.856;2023-12-04T09:39:14;26.10;;;19.02;;
51020;SDS011;38907;45.562;8.856;2023-12-04T09:44:17;23.75;;;19.15;;
51020;SDS011;38907;45.562;8.856;2023-12-04T09:49:20;25.98;;;19.17;;
51020;SDS011;38907;45.562;8.856;2023-12-04T09:54:22;23.02;;;19.38;;
51020;SDS011;38907;45.562;8.856;2023-12-04T09:59:26;23.50;;;18.97;;
51020;SDS011;38907;45.562;8.856;2023-12-04T10:04:30;26.00;;;19.80;;
51020;SDS011;38907;45.562;8.856;2023-12-04T10:09:33;22.77;;;18.67;;
51020;SDS011;38907;45.562;8.856;2023-12-04T10:14:36;21.42;;;18.08;;
51020;SDS011;38907;45.562;8.856;2023-12-04T10:19:38;25.10;;;18.63;;
51020;SDS011;38907;45.562;8.856;2023-12-04T10:24:40;21.02;;;17.20;;
51020;SDS011;38907;45.562;8.856;2023-12-04T10:29:44;20.70;;;16.77;;
51020;SDS011;38907;45.562;8.856;2023-12-04T10:34:47;22.10;;;17.10;;
51020;SDS011;38907;45.562;8.856;2023-12-04T10:39:50;19.02;;;15.77;;
51020;SDS011;38907;45.562;8.856;2023-12-04T10:44:55;17.88;;;14.82;;
51020;SDS011;38907;45.562;8.856;2023-12-04T10:49:58;19.00;;;15.25;;
51020;SDS011;38907;45.562;8.856;2023-12-04T10:55:01;20.42;;;15.90;;
51020;SDS011;38907;45.562;8.856;2023-12-04T11:00:05;19.77;;;15.13;;
51020;SDS011;38907;45.562;8.856;2023-12-04T11:05:08;19.67;;;13.13;;
51020;SDS011;38907;45.562;8.856;2023-12-04T11:10:16;17.98;;;13.70;;
51020;SDS011;38907;45.562;8.856;2023-12-04T11:15:23;16.35;;;12.85;;
51020;SDS011;38907;45.562;8.856;2023-12-04T11:25:28;18.48;;;15.05;;
51020;SDS011;38907;45.562;8.856;2023-12-04T11:30:36;18.25;;;14.07;;
51020;SDS011;38907;45.562;8.856;2023-12-04T11:35:38;19.77;;;14.63;;
51020;SDS011;38907;45.562;8.856;2023-12-04T11:40:40;12.85;;;10.80;;
51020;SDS011;38907;45.562;8.856;2023-12-04T11:45:44;16.23;;;11.63;;
51020;SDS011;38907;45.562;8.856;2023-12-04T11:50:49;14.90;;;11.60;;
51020;SDS011;38907;45.562;8.856;2023-12-04T11:55:51;15.43;;;12.15;;
51020;SDS011;38907;45.562;8.856;2023-12-04T12:00:59;12.75;;;11.02;;
51020;SDS011;38907;45.562;8.856;2023-12-04T12:06:01;18.00;;;13.13;;
51020;SDS011;38907;45.562;8.856;2023-12-04T12:11:04;20.63;;;13.07;;
51020;SDS011;38907;45.562;8.856;2023-12-04T12:16:09;15.97;;;11.43;;
51020;SDS011;38907;45.562;8.856;2023-12-04T12:21:12;13.95;;;11.40;;
51020;SDS011;38907;45.562;8.856;2023-12-04T12:26:15;16.33;;;12.23;;
51020;SDS011;38907;45.562;8.856;2023-12-04T12:31:18;24.13;;;11.75;;
51020;SDS011;38907;45.562;8.856;2023-12-04T12:36:20;15.52;;;11.65;;
51020;SDS011;38907;45.562;8.856;2023-12-04T12:41:22;14.30;;;11.05;;
51020;SDS011;38907;45.562;8.856;2023-12-04T12:46:25;13.40;;;10.68;;
51020;SDS011;38907;45.562;8.856;2023-12-04T12:51:27;11.77;;;10.07;;
51020;SDS011;38907;45.562;8.856;2023-12-04T12:56:29;14.25;;;10.20;;
51020;SDS011;38907;45.562;8.856;2023-12-04T13:01:33;13.38;;;9.88;;
51020;SDS011;38907;45.562;8.856;2023-12-04T13:06:34;15.68;;;10.10;;
51020;SDS011;38907;45.562;8.856;2023-12-04T13:11:36;15.77;;;10.30;;
51020;SDS011;38907;45.562;8.856;2023-12-04T13:16:39;16.10;;;11.85;;
51020;SDS011;38907;45.562;8.856;2023-12-04T13:21:41;12.00;;;10.38;;
51020;SDS011;38907;45.562;8.856;2023-12-04T13:26:43;13.88;;;10.60;;
51020;SDS011;38907;45.562;8.856;2023-12-04T13:31:47;13.65;;;11.20;;
51020;SDS011;38907;45.562;8.856;2023-12-04T13:36:50;17.35;;;12.10;;
51020;SDS011;38907;45.562;8.856;2023-12-04T13:41:51;14.80;;;11.90;;
51020;SDS011;38907;45.562;8.856;2023-12-04T13:47:13;14.27;;;11.45;;
51020;SDS011;38907;45.562;8.856;2023-12-04T13:52:16;15.85;;;12.10;;
51020;SDS011;38907;45.562;8.856;2023-12-04T13:57:22;19.67;;;12.57;;
51020;SDS011;38907;45.562;8.856;2023-12-04T14:02:29;19.85;;;14.57;;
51020;SDS011;38907;45.562;8.856;2023-12-04T14:07:31;16.20;;;13.20;;
51020;SDS011;38907;45.562;8.856;2023-12-04T14:12:33;18.73;;;13.45;;
51020;SDS011;38907;45.562;8.856;2023-12-04T14:17:36;19.80;;;14.57;;
51020;SDS011;38907;45.562;8.856;2023-12-04T14:22:40;18.35;;;15.02;;
51020;SDS011;38907;45.562;8.856;2023-12-04T14:27:44;18.98;;;15.82;;
51020;SDS011;38907;45.562;8.856;2023-12-04T14:32:47;21.95;;;16.45;;
51020;SDS011;38907;45.562;8.856;2023-12-04T14:37:48;20.55;;;15.95;;
51020;SDS011;38907;45.562;8.856;2023-12-04T14:42:51;20.23;;;17.15;;
51020;SDS011;38907;45.562;8.856;2023-12-04T14:47:54;23.90;;;20.23;;
51020;SDS011;38907;45.562;8.856;2023-12-04T14:52:57;25.05;;;19.05;;
51020;SDS011;38907;45.562;8.856;2023-12-04T14:58:13;24.90;;;18.58;;
51020;SDS011;38907;45.562;8.856;2023-12-04T15:03:42;25.25;;;19.20;;
51020;SDS011;38907;45.562;8.856;2023-12-04T15:09:03;24.08;;;19.63;;
51020;SDS011;38907;45.562;8.856;2023-12-04T15:14:23;23.77;;;20.25;;
51020;SDS011;38907;45.562;8.856;2023-12-04T15:19:37;25.30;;;20.67;;
51020;SDS011;38907;45.562;8.856;2023-12-04T15:24:57;28.30;;;20.70;;
51020;SDS011;38907;45.562;8.856;2023-12-04T15:29:58;27.77;;;21.50;;
51020;SDS011;38907;45.562;8.856;2023-12-04T15:35:01;27.10;;;21.58;;
51020;SDS011;38907;45.562;8.856;2023-12-04T15:40:04;31.52;;;22.00;;
51020;SDS011;38907;45.562;8.856;2023-12-04T15:45:07;29.17;;;22.52;;
51020;SDS011;38907;45.562;8.856;2023-12-04T15:50:12;30.10;;;23.80;;
51020;SDS011;38907;45.562;8.856;2023-12-04T15:55:14;27.48;;;22.77;;
51020;SDS011;38907;45.562;8.856;2023-12-04T16:00:16;28.25;;;21.13;;
51020;SDS011;38907;45.562;8.856;2023-12-04T16:05:19;26.52;;;22.13;;
51020;SDS011;38907;45.562;8.856;2023-12-04T16:10:22;26.40;;;21.48;;
51020;SDS011;38907;45.562;8.856;2023-12-04T16:15:24;27.50;;;22.35;;
51020;SDS011;38907;45.562;8.856;2023-12-04T16:20:27;28.95;;;22.30;;
51020;SDS011;38907;45.562;8.856;2023-12-04T16:25:29;27.88;;;21.95;;
51020;SDS011;38907;45.562;8.856;2023-12-04T16:30:31;31.90;;;22.48;;
51020;SDS011;38907;45.562;8.856;2023-12-04T16:35:34;28.58;;;23.85;;
51020;SDS011;38907;45.562;8.856;2023-12-04T16:40:36;30.52;;;25.05;;
51020;SDS011;38907;45.562;8.856;2023-12-04T16:45:37;38.58;;;29.85;;
51020;SDS011;38907;45.562;8.856;2023-12-04T16:50:41;28.48;;;23.35;;
51020;SDS011;38907;45.562;8.856;2023-12-04T16:55:42;30.67;;;23.23;;
51020;SDS011;38907;45.562;8.856;2023-12-04T17:00:44;31.45;;;23.85;;
51020;SDS011;38907;45.562;8.856;2023-12-04T17:05:47;28.40;;;23.38;;
51020;SDS011;38907;45.562;8.856;2023-12-04T17:10:49;36.95;;;24.73;;
51020;SDS011;38907;45.562;8.856;2023-12-04T17:15:51;31.23;;;24.17;;
51020;SDS011;38907;45.562;8.856;2023-12-04T17:20:54;29.20;;;24.02;;
51020;SDS011;38907;45.562;8.856;2023-12-04T17:25:56;32.22;;;24.35;;
51020;SDS011;38907;45.562;8.856;2023-12-04T17:30:57;38.45;;;27.08;;
51020;SDS011;38907;45.562;8.856;2023-12-04T17:36:01;32.15;;;25.58;;
51020;SDS011;38907;45.562;8.856;2023-12-04T17:41:04;31.10;;;23.67;;
51020;SDS011;38907;45.562;8.856;2023-12-04T17:46:06;28.73;;;25.05;;
51020;SDS011;38907;45.562;8.856;2023-12-04T17:56:16;31.08;;;25.08;;
51020;SDS011;38907;45.562;8.856;2023-12-04T18:01:18;30.50;;;24.75;;
51020;SDS011;38907;45.562;8.856;2023-12-04T18:06:26;31.30;;;24.42;;
51020;SDS011;38907;45.562;8.856;2023-12-04T18:11:28;29.45;;;24.05;;
51020;SDS011;38907;45.562;8.856;2023-12-04T18:16:29;34.78;;;24.35;;
51020;SDS011;38907;45.562;8.856;2023-12-04T18:21:32;30.40;;;23.63;;
51020;SDS011;38907;45.562;8.856;2023-12-04T18:26:34;28.58;;;22.30;;
51020;SDS011;38907;45.562;8.856;2023-12-04T18:31:39;29.75;;;24.35;;
51020;SDS011;38907;45.562;8.856;2023-12-04T18:36:44;29.70;;;24.13;;
51020;SDS011;38907;45.562;8.856;2023-12-04T18:41:50;29.88;;;23.65;;
51020;SDS011;38907;45.562;8.856;2023-12-04T18:46:53;31.67;;;24.83;;
51020;SDS011;38907;45.562;8.856;2023-12-04T18:51:59;31.88;;;25.95;;
51020;SDS011;38907;45.562;8.856;2023-12-04T19:02:03;32.88;;;23.30;;
51020;SDS011;38907;45.562;8.856;2023-12-04T19:07:06;33.03;;;24.83;;
51020;SDS011;38907;45.562;8.856;2023-12-04T19:12:08;31.33;;;24.00;;
51020;SDS011;38907;45.562;8.856;2023-12-04T19:17:10;31.33;;;24.90;;
51020;SDS011;38907;45.562;8.856;2023-12-04T19:22:14;31.42;;;24.92;;
51020;SDS011;38907;45.562;8.856;2023-12-04T19:27:15;32.80;;;25.33;;
51020;SDS011;38907;45.562;8.856;2023-12-04T19:32:17;32.67;;;25.85;;
51020;SDS011;38907;45.562;8.856;2023-12-04T19:37:21;31.52;;;25.40;;
51020;SDS011;38907;45.562;8.856;2023-12-04T19:42:22;32.72;;;26.10;;
51020;SDS011;38907;45.562;8.856;2023-12-04T19:47:27;31.33;;;25.58;;
51020;SDS011;38907;45.562;8.856;2023-12-04T19:52:30;31.23;;;25.80;;
51020;SDS011;38907;45.562;8.856;2023-12-04T19:57:32;34.55;;;26.40;;
51020;SDS011;38907;45.562;8.856;2023-12-04T20:02:35;33.30;;;26.35;;
51020;SDS011;38907;45.562;8.856;2023-12-04T20:07:38;36.17;;;28.27;;
51020;SDS011;38907;45.562;8.856;2023-12-04T20:12:40;36.00;;;27.77;;
51020;SDS011;38907;45.562;8.856;2023-12-04T20:17:41;35.40;;;28.00;;
51020;SDS011;38907;45.562;8.856;2023-12-04T20:22:45;34.22;;;27.15;;
51020;SDS011;38907;45.562;8.856;2023-12-04T20:27:46;34.05;;;28.15;;
51020;SDS011;38907;45.562;8.856;2023-12-04T20:32:49;33.55;;;27.63;;
51020;SDS011;38907;45.562;8.856;2023-12-04T20:37:52;33.83;;;26.25;;
51020;SDS011;38907;45.562;8.856;2023-12-04T20:42:54;36.22;;;27.05;;
51020;SDS011;38907;45.562;8.856;2023-12-04T20:47:55;36.08;;;27.98;;
51020;SDS011;38907;45.562;8.856;2023-12-04T20:52:58;34.25;;;27.55;;
51020;SDS011;38907;45.562;8.856;2023-12-04T20:58:02;42.90;;;30.90;;
51020;SDS011;38907;45.562;8.856;2023-12-04T21:03:05;55.28;;;39.65;;
51020;SDS011;38907;45.562;8.856;2023-12-04T21:08:08;40.78;;;31.27;;
51020;SDS011;38907;45.562;8.856;2023-12-04T21:13:10;38.13;;;29.63;;
51020;SDS011;38907;45.562;8.856;2023-12-04T21:18:12;37.65;;;28.05;;
51020;SDS011;38907;45.562;8.856;2023-12-04T21:23:16;38.15;;;28.80;;
51020;SDS011;38907;45.562;8.856;2023-12-04T21:28:17;36.60;;;28.02;;
51020;SDS011;38907;45.562;8.856;2023-12-04T21:33:19;40.65;;;29.58;;
51020;SDS011;38907;45.562;8.856;2023-12-04T21:38:24;37.20;;;28.58;;
51020;SDS011;38907;45.562;8.856;2023-12-04T21:43:26;37.33;;;28.92;;
51020;SDS011;38907;45.562;8.856;2023-12-04T21:48:28;42.88;;;31.52;;
51020;SDS011;38907;45.562;8.856;2023-12-04T21:53:31;39.70;;;30.95;;
51020;SDS011;38907;45.562;8.856;2023-12-04T21:58:34;45.15;;;33.28;;
51020;SDS011;38907;45.562;8.856;2023-12-04T22:03:36;43.75;;;33.35;;
51020;SDS011;38907;45.562;8.856;2023-12-04T22:08:39;43.03;;;30.90;;
51020;SDS011;38907;45.562;8.856;2023-12-04T22:13:42;41.10;;;29.92;;
51020;SDS011;38907;45.562;8.856;2023-12-04T22:18:44;42.63;;;30.73;;
51020;SDS011;38907;45.562;8.856;2023-12-04T22:23:47;43.33;;;30.92;;
51020;SDS011;38907;45.562;8.856;2023-12-04T22:28:48;44.60;;;32.17;;
51020;SDS011;38907;45.562;8.856;2023-12-04T22:33:50;41.78;;;30.80;;
51020;SDS011;38907;45.562;8.856;2023-12-04T22:38:53;44.85;;;32.10;;
51020;SDS011;38907;45.562;8.856;2023-12-04T22:43:56;46.03;;;30.65;;
51020;SDS011;38907;45.562;8.856;2023-12-04T22:48:57;45.95;;;32.40;;
51020;SDS011;38907;45.562;8.856;2023-12-04T22:54:01;45.20;;;31.98;;
51020;SDS011;38907;45.562;8.856;2023-12-04T22:59:02;46.35;;;31.67;;
51020;SDS011;38907;45.562;8.856;2023-12-04T23:04:04;45.28;;;31.27;;
51020;SDS011;38907;45.562;8.856;2023-12-04T23:09:07;48.88;;;31.27;;
51020;SDS011;38907;45.562;8.856;2023-12-04T23:14:09;43.60;;;30.20;;
51020;SDS011;38907;45.562;8.856;2023-12-04T23:19:11;42.60;;;30.30;;
51020;SDS011;38907;45.562;8.856;2023-12-04T23:24:14;42.05;;;31.27;;
51020;SDS011;38907;45.562;8.856;2023-12-04T23:29:16;43.92;;;31.13;;
51020;SDS011;38907;45.562;8.856;2023-12-04T23:34:18;43.65;;;32.28;;
51020;SDS011;38907;45.562;8.856;2023-12-04T23:39:22;45.83;;;32.70;;
51020;SDS011;38907;45.562;8.856;2023-12-04T23:44:24;53.67;;;35.25;;
51020;SDS011;38907;45.562;8.856;2023-12-04T23:49:26;51.03;;;34.05;;
51020;SDS011;38907;45.562;8.856;2023-12-04T23:54:29;53.30;;;33.85;;
51020;SDS011;38907;45.562;8.856;2023-12-04T23:59:31;54.47;;;36.17;;
